Time;durP1;ratioP1;P1;durP2;ratioP2;P2;SDS_P1;SDS_P2;PMS_P1;PMS_P2;Temp;Humidity;BMP_temperature;BMP_pressure;BME280_temperature;BME280_humidity;BME280_pressure;Samples;Min_cycle;Max_cycle;Signal;HPM_P1;HPM_P2
2022/01/11 00:01:20;;;;;;;3.97;1.50;;;1.40;95.90;;;;;;4970491;28;20483;-76
2022/01/11 00:03:48;;;;;;;5.33;1.50;;;1.40;95.90;;;;;;4989732;28;20053;-76
2022/01/11 00:06:25;;;;;;;4.23;1.60;;;1.40;95.90;;;;;;4990314;28;20045;-76
2022/01/11 00:08:59;;;;;;;5.13;1.67;;;1.40;95.90;;;;;;4992371;28;20096;-76
2022/01/11 00:11:26;;;;;;;5.77;2.13;;;1.40;95.90;;;;;;4990024;28;20084;-76
2022/01/11 00:13:53;;;;;;;4.95;1.52;;;1.40;95.90;;;;;;4989845;28;20095;-76
2022/01/11 00:16:20;;;;;;;6.10;1.65;;;1.50;95.90;;;;;;5006117;28;20129;-75
2022/01/11 00:18:47;;;;;;;5.87;2.10;;;1.50;95.80;;;;;;4958153;28;20486;-75
2022/01/11 00:21:14;;;;;;;5.10;2.00;;;1.50;95.80;;;;;;4974842;28;20057;-75
2022/01/11 00:26:08;;;;;;;4.87;1.87;;;1.50;95.80;;;;;;4974062;28;20046;-76
2022/01/11 00:28:35;;;;;;;6.13;2.00;;;1.60;95.90;;;;;;4958383;28;20121;-76
2022/01/11 00:31:23;;;;;;;6.00;1.90;;;1.60;95.80;;;;;;5004432;28;20045;-76
2022/01/11 00:33:51;;;;;;;6.20;2.37;;;1.60;95.80;;;;;;4971060;28;20046;-76
2022/01/11 00:36:18;;;;;;;7.88;2.70;;;1.60;96.00;;;;;;4988223;28;20116;-76
2022/01/11 00:38:46;;;;;;;7.30;1.90;;;1.60;96.00;;;;;;4972279;28;20058;-75
2022/01/11 00:41:15;;;;;;;6.83;2.87;;;1.60;95.70;;;;;;4973409;28;20065;-75
2022/01/11 00:43:42;;;;;;;6.57;2.40;;;1.60;95.70;;;;;;4957065;28;20116;-75
2022/01/11 00:46:11;;;;;;;6.90;2.47;;;1.60;95.80;;;;;;5007175;28;20045;-75
2022/01/11 00:48:40;;;;;;;5.37;2.23;;;1.60;95.80;;;;;;5007459;28;20037;-76
2022/01/11 00:51:09;;;;;;;6.15;2.30;;;1.60;95.70;;;;;;4967911;28;20105;-76
2022/01/11 00:53:38;;;;;;;6.25;2.78;;;1.60;95.70;;;;;;4978015;28;20054;-75
2022/01/11 00:56:06;;;;;;;5.80;2.10;;;1.50;95.70;;;;;;4980939;28;20125;-76
2022/01/11 00:58:33;;;;;;;6.60;2.55;;;1.50;95.70;;;;;;5012217;28;20058;-76
2022/01/11 01:01:00;;;;;;;6.35;1.92;;;1.50;95.70;;;;;;4982028;28;20066;-76
2022/01/11 01:03:27;;;;;;;5.07;1.60;;;1.50;95.70;;;;;;4994988;28;20058;-77
2022/01/11 01:05:55;;;;;;;13.60;3.87;;;1.50;95.80;;;;;;4996446;28;20042;-76
2022/01/11 01:08:25;;;;;;;11.40;3.90;;;1.50;95.70;;;;;;4978904;28;20045;-76
2022/01/11 01:10:52;;;;;;;11.30;4.15;;;1.40;95.60;;;;;;4962268;28;20045;-76
2022/01/11 01:13:25;;;;;;;8.47;3.27;;;1.30;95.60;;;;;;4977860;28;20521;-76
2022/01/11 01:15:58;;;;;;;8.37;3.23;;;1.30;95.70;;;;;;4997161;28;20046;-77
2022/01/11 01:18:44;;;;;;;7.80;3.03;;;1.30;95.70;;;;;;4991888;28;20058;-77
2022/01/11 01:21:14;;;;;;;6.97;3.00;;;1.30;96.00;;;;;;4975456;28;20105;-77
2022/01/11 01:23:42;;;;;;;8.83;3.50;;;1.30;95.70;;;;;;5008900;28;20097;-77
2022/01/11 01:26:09;;;;;;;9.63;4.33;;;1.30;95.60;;;;;;4963975;28;20074;-76
2022/01/11 01:28:38;;;;;;;7.53;3.07;;;1.20;95.60;;;;;;4978615;28;20417;-77
2022/01/11 01:31:05;;;;;;;9.07;3.67;;;1.20;95.70;;;;;;5009571;28;20050;-76
2022/01/11 01:33:34;;;;;;;16.10;5.23;;;1.20;95.70;;;;;;4995506;28;20426;-76
2022/01/11 01:36:03;;;;;;;10.13;4.63;;;1.20;95.70;;;;;;4994393;28;20053;-76
2022/01/11 01:38:32;;;;;;;11.20;5.37;;;1.20;95.70;;;;;;4977106;28;20078;-76
2022/01/11 01:41:09;;;;;;;11.83;4.90;;;1.10;95.90;;;;;;4994259;28;20157;-76
2022/01/11 01:43:37;;;;;;;7.70;2.90;;;1.20;95.80;;;;;;4991142;28;20565;-77
2022/01/11 01:46:04;;;;;;;7.20;2.88;;;1.20;95.80;;;;;;4993506;28;20053;-76
2022/01/11 01:48:31;;;;;;;6.07;2.87;;;1.30;96.10;;;;;;4980134;28;20050;-77
2022/01/11 01:50:59;;;;;;;5.70;2.87;;;1.30;95.80;;;;;;4997748;28;20062;-76
2022/01/11 01:53:26;;;;;;;9.17;3.90;;;1.30;95.80;;;;;;4997532;28;20450;-76
2022/01/11 01:55:53;;;;;;;8.70;3.47;;;1.30;95.70;;;;;;4979445;28;20050;-76
2022/01/11 01:58:20;;;;;;;11.37;4.00;;;1.20;95.70;;;;;;5000750;28;20049;-76
2022/01/11 02:00:54;;;;;;;6.70;3.00;;;1.20;95.70;;;;;;4997063;28;20046;-76
2022/01/11 02:03:26;;;;;;;6.57;2.53;;;1.20;95.70;;;;;;4999413;28;20068;-77
2022/01/11 02:05:55;;;;;;;7.68;3.47;;;1.30;95.70;;;;;;4998271;28;20063;-76
2022/01/11 02:08:23;;;;;;;9.20;3.63;;;1.30;95.70;;;;;;4982158;28;20041;-76
2022/01/11 02:10:52;;;;;;;5.73;2.13;;;1.30;95.70;;;;;;4997163;28;20072;-77
2022/01/11 02:13:19;;;;;;;6.10;2.60;;;1.30;95.70;;;;;;4995557;28;20567;-77
2022/01/11 02:15:46;;;;;;;7.50;2.40;;;1.40;95.70;;;;;;4979115;28;20460;-76
2022/01/11 02:18:18;;;;;;;5.87;2.53;;;1.40;95.80;;;;;;4999937;28;20725;-77
2022/01/11 02:20:50;;;;;;;5.67;1.87;;;1.40;95.70;;;;;;4995351;28;20073;-76
2022/01/11 02:23:28;;;;;;;5.70;1.77;;;1.40;95.70;;;;;;4999289;28;20493;-76
2022/01/11 02:25:57;;;;;;;5.73;1.90;;;1.40;95.70;;;;;;4981708;28;20501;-76
2022/01/11 02:28:26;;;;;;;5.25;1.48;;;1.40;95.80;;;;;;4998229;28;20061;-77
2022/01/11 02:30:56;;;;;;;8.47;3.20;;;1.40;95.70;;;;;;4998235;28;20042;-77
2022/01/11 02:33:35;;;;;;;6.73;3.20;;;1.40;95.70;;;;;;4996275;28;20054;-77
2022/01/11 02:36:31;;;;;;;6.77;3.00;;;1.40;95.60;;;;;;5006906;28;20045;-77
2022/01/11 02:39:21;;;;;;;7.70;2.65;;;1.30;95.60;;;;;;5031869;28;20049;-76
2022/01/11 02:41:56;;;;;;;6.10;2.13;;;1.30;95.70;;;;;;4961166;28;20540;-77
2022/01/11 02:44:43;;;;;;;6.43;3.13;;;1.40;95.70;;;;;;5009429;28;20588;-77
2022/01/11 02:47:18;;;;;;;6.20;2.28;;;1.40;95.70;;;;;;4977358;28;20696;-76
2022/01/11 02:49:46;;;;;;;6.13;2.20;;;1.40;95.70;;;;;;5009590;28;20050;-77
2022/01/11 02:52:20;;;;;;;5.90;2.30;;;1.40;95.80;;;;;;4958724;28;20239;-76
2022/01/11 02:54:53;;;;;;;4.70;2.07;;;1.40;95.70;;;;;;4956965;28;20046;-77
2022/01/11 02:57:21;;;;;;;6.38;2.55;;;1.40;95.70;;;;;;4975542;28;20046;-76
2022/01/11 02:59:54;;;;;;;7.07;2.37;;;1.50;95.80;;;;;;4963121;28;20391;-77
2022/01/11 03:02:21;;;;;;;6.57;2.33;;;1.50;95.70;;;;;;4988416;28;20046;-77
2022/01/11 03:04:51;;;;;;;9.27;3.67;;;1.50;95.70;;;;;;4947630;28;20129;-77
2022/01/11 03:07:19;;;;;;;6.93;2.80;;;1.40;95.70;;;;;;4955575;28;20086;-77
2022/01/11 03:10:01;;;;;;;9.80;3.63;;;1.50;95.70;;;;;;4953625;28;20057;-77
2022/01/11 03:12:35;;;;;;;7.70;3.23;;;1.40;95.60;;;;;;4973529;28;20723;-77
2022/01/11 03:15:03;;;;;;;9.60;3.13;;;1.40;95.70;;;;;;4978772;28;20060;-77
2022/01/11 03:17:30;;;;;;;7.63;2.72;;;1.50;95.70;;;;;;4969339;28;20053;-76
2022/01/11 03:19:58;;;;;;;8.13;3.43;;;1.50;95.70;;;;;;4945790;28;20066;-76
2022/01/11 03:22:25;;;;;;;8.23;3.13;;;1.50;95.70;;;;;;4961034;28;20049;-76
2022/01/11 03:24:52;;;;;;;8.70;3.10;;;1.50;95.60;;;;;;4959075;28;20111;-76
2022/01/11 03:27:20;;;;;;;8.03;2.90;;;1.50;95.60;;;;;;4988409;28;20046;-76
2022/01/11 03:29:47;;;;;;;9.73;4.17;;;1.50;95.70;;;;;;4978856;28;20141;-76
2022/01/11 03:32:18;;;;;;;8.07;3.00;;;1.50;95.60;;;;;;4974487;28;20046;-76
2022/01/11 03:35:07;;;;;;;6.50;2.30;;;1.50;95.70;;;;;;4958570;28;20049;-76
2022/01/11 03:37:35;;;;;;;6.93;2.63;;;1.50;95.70;;;;;;4954312;28;20099;-76
2022/01/11 03:40:04;;;;;;;5.60;2.90;;;1.50;95.70;;;;;;4973407;28;20043;-76
2022/01/11 03:42:31;;;;;;;8.30;3.40;;;1.50;95.60;;;;;;4971073;28;21181;-77
2022/01/11 03:45:01;;;;;;;8.90;3.53;;;1.50;95.70;;;;;;4964799;28;20106;-76
2022/01/11 03:47:33;;;;;;;7.75;2.90;;;1.50;95.60;;;;;;5001494;28;20053;-76
2022/01/11 03:50:00;;;;;;;7.05;2.83;;;1.50;95.60;;;;;;4964261;28;20387;-76
2022/01/11 03:52:28;;;;;;;8.35;3.75;;;1.50;95.60;;;;;;4999303;28;20046;-76
2022/01/11 03:57:32;;;;;;;8.20;3.27;;;1.50;95.60;;;;;;4996479;28;20424;-76
2022/01/11 04:00:01;;;;;;;8.33;3.77;;;1.40;95.60;;;;;;4996739;28;20049;-76
2022/01/11 04:02:40;;;;;;;9.15;3.60;;;1.40;95.60;;;;;;5018578;28;20072;-76
2022/01/11 04:05:12;;;;;;;7.20;3.17;;;1.50;95.60;;;;;;4997562;28;21367;-76
2022/01/11 04:07:41;;;;;;;6.63;2.70;;;1.50;95.60;;;;;;4991659;28;20053;-76
2022/01/11 04:10:10;;;;;;;8.20;3.10;;;1.50;95.60;;;;;;4994731;28;20073;-76
2022/01/11 04:12:38;;;;;;;6.93;3.60;;;1.50;95.60;;;;;;4979633;28;20058;-76
2022/01/11 04:15:06;;;;;;;8.00;2.93;;;1.50;95.60;;;;;;5007796;28;20108;-77
2022/01/11 04:17:33;;;;;;;7.07;3.70;;;1.50;95.60;;;;;;5006957;28;20058;-76
2022/01/11 04:20:00;;;;;;;9.53;4.10;;;1.50;95.60;;;;;;5016158;28;20045;-76
2022/01/11 04:22:28;;;;;;;6.63;3.13;;;1.50;95.60;;;;;;5008673;28;20045;-76
2022/01/11 04:24:55;;;;;;;7.72;3.45;;;1.50;95.60;;;;;;4979852;28;20042;-76
2022/01/11 04:27:22;;;;;;;9.33;3.73;;;1.50;95.60;;;;;;4983819;28;20045;-76
2022/01/11 04:29:50;;;;;;;8.25;3.35;;;1.50;95.60;;;;;;4997770;28;20052;-76
2022/01/11 04:32:21;;;;;;;8.93;3.53;;;1.50;95.60;;;;;;5007508;28;20724;-76
2022/01/11 04:34:49;;;;;;;7.67;3.43;;;1.50;95.60;;;;;;4996041;28;20049;-76
2022/01/11 04:37:17;;;;;;;8.50;3.53;;;1.50;95.60;;;;;;4992760;28;20112;-76
2022/01/11 04:39:44;;;;;;;7.73;3.30;;;1.50;95.60;;;;;;4991613;28;20144;-77
2022/01/11 04:42:11;;;;;;;7.87;3.70;;;1.50;95.60;;;;;;4963596;28;20080;-77
2022/01/11 04:44:39;;;;;;;8.73;3.33;;;1.50;95.60;;;;;;4964952;28;20095;-76
2022/01/11 04:47:06;;;;;;;9.63;4.00;;;1.50;95.60;;;;;;4991195;28;20108;-76
2022/01/11 04:49:34;;;;;;;8.00;4.10;;;1.50;95.60;;;;;;5004914;28;20607;-76
2022/01/11 04:52:03;;;;;;;9.05;3.78;;;1.50;95.60;;;;;;5012424;28;20041;-76
2022/01/11 04:54:33;;;;;;;9.53;4.47;;;1.50;95.60;;;;;;4974986;28;20489;-76
2022/01/11 04:57:01;;;;;;;9.87;4.40;;;1.50;95.60;;;;;;4969708;28;20048;-76
2022/01/11 04:59:29;;;;;;;9.10;4.18;;;1.50;95.60;;;;;;4984412;28;20406;-77
2022/01/11 05:01:58;;;;;;;10.18;4.30;;;1.50;95.60;;;;;;4987360;28;20074;-76
2022/01/11 05:04:25;;;;;;;9.77;3.73;;;1.50;95.60;;;;;;4984568;28;20129;-76
2022/01/11 05:06:55;;;;;;;9.33;4.17;;;1.50;95.60;;;;;;4981702;28;20513;-76
2022/01/11 05:09:24;;;;;;;12.02;5.18;;;1.60;95.60;;;;;;4998856;28;20057;-77
2022/01/11 05:11:51;;;;;;;14.07;5.20;;;1.50;95.60;;;;;;4969382;28;20136;-77
2022/01/11 05:14:18;;;;;;;11.10;4.60;;;1.50;95.60;;;;;;4980816;28;20063;-77
2022/01/11 05:16:51;;;;;;;10.40;4.20;;;1.50;95.60;;;;;;4963977;28;20142;-76
2022/01/11 05:19:19;;;;;;;11.83;5.33;;;1.50;95.50;;;;;;4987887;28;20062;-77
2022/01/11 05:21:48;;;;;;;13.80;5.83;;;1.50;95.50;;;;;;4985724;28;20041;-77
2022/01/11 05:24:15;;;;;;;15.57;5.63;;;1.50;95.50;;;;;;4989368;28;20045;-77
2022/01/11 05:26:46;;;;;;;11.13;5.20;;;1.50;95.50;;;;;;4996988;28;20045;-77
2022/01/11 05:29:13;;;;;;;14.53;6.53;;;1.50;95.60;;;;;;4954714;28;20176;-76
2022/01/11 05:31:41;;;;;;;12.68;5.65;;;1.50;95.60;;;;;;4980852;28;20185;-76
2022/01/11 05:34:08;;;;;;;11.27;5.20;;;1.40;95.50;;;;;;4981870;28;20055;-77
2022/01/11 05:36:35;;;;;;;11.27;4.60;;;1.40;95.50;;;;;;4972348;28;20100;-77
2022/01/11 05:39:03;;;;;;;10.20;4.20;;;1.40;95.60;;;;;;4988200;28;20378;-77
2022/01/11 05:41:32;;;;;;;8.65;3.60;;;1.50;95.60;;;;;;4983956;28;20469;-77
2022/01/11 05:43:59;;;;;;;8.73;3.10;;;1.50;95.60;;;;;;4983056;28;20088;-77
2022/01/11 05:46:27;;;;;;;7.05;2.47;;;1.50;95.60;;;;;;4998107;28;20049;-77
2022/01/11 05:48:55;;;;;;;8.70;2.80;;;1.50;95.60;;;;;;4969366;28;20053;-77
2022/01/11 05:51:25;;;;;;;8.00;3.23;;;1.50;95.60;;;;;;4981106;28;20059;-78
2022/01/11 05:53:55;;;;;;;7.38;3.17;;;1.50;95.60;;;;;;4973391;28;20073;-77
2022/01/11 05:56:22;;;;;;;6.70;2.83;;;1.60;95.60;;;;;;5003430;28;20068;-76
2022/01/11 05:58:52;;;;;;;7.30;2.67;;;1.50;95.60;;;;;;5001839;28;20221;-77
2022/01/11 06:01:19;;;;;;;6.43;2.70;;;1.50;95.60;;;;;;4982144;28;20471;-77
2022/01/11 06:03:46;;;;;;;5.87;2.97;;;1.50;95.60;;;;;;4985459;28;20175;-77
2022/01/11 06:06:13;;;;;;;6.15;3.00;;;1.50;95.60;;;;;;4987324;28;20130;-77
2022/01/11 06:08:40;;;;;;;7.47;3.30;;;1.50;95.60;;;;;;5003756;28;20050;-76
2022/01/11 06:11:07;;;;;;;6.32;2.55;;;1.50;95.60;;;;;;4987876;28;20082;-77
2022/01/11 06:13:37;;;;;;;7.40;2.63;;;1.50;95.60;;;;;;4985755;28;20054;-77
2022/01/11 06:16:05;;;;;;;7.03;2.50;;;1.50;95.60;;;;;;4987043;28;20050;-77
2022/01/11 06:18:32;;;;;;;5.87;2.97;;;1.50;95.60;;;;;;4987118;28;20033;-77
2022/01/11 06:21:31;;;;;;;6.10;2.37;;;1.50;95.60;;;;;;4941745;28;20066;-77
2022/01/11 06:23:58;;;;;;;6.60;2.40;;;1.50;95.90;;;;;;4985720;28;20057;-77
2022/01/11 06:26:25;;;;;;;6.87;3.00;;;1.50;95.60;;;;;;4974596;28;20397;-76
2022/01/11 06:28:52;;;;;;;8.65;3.20;;;1.50;95.60;;;;;;4962784;28;20145;-77
2022/01/11 06:31:20;;;;;;;8.63;4.10;;;1.50;95.60;;;;;;4964819;28;20060;-78
2022/01/11 06:33:47;;;;;;;9.30;3.30;;;1.50;95.60;;;;;;5020206;28;20100;-78
2022/01/11 06:36:19;;;;;;;9.90;3.40;;;1.50;95.60;;;;;;4968446;28;20050;-77
2022/01/11 06:38:46;;;;;;;7.63;3.23;;;1.50;95.60;;;;;;4980109;28;20069;-79
2022/01/11 06:41:19;;;;;;;7.20;3.03;;;1.50;95.60;;;;;;4990359;28;20406;-77
2022/01/11 06:43:48;;;;;;;8.27;2.90;;;1.50;95.60;;;;;;5002998;28;20057;-77
2022/01/11 06:46:15;;;;;;;8.73;3.90;;;1.50;95.60;;;;;;4978710;28;20054;-79
2022/01/11 06:48:43;;;;;;;13.33;5.73;;;1.50;95.60;;;;;;4948010;28;20034;-78
2022/01/11 06:51:12;;;;;;;10.40;4.17;;;1.50;95.50;;;;;;4985342;28;20061;-79
2022/01/11 06:53:46;;;;;;;7.23;3.50;;;1.50;95.60;;;;;;4978736;28;20078;-78
2022/01/11 06:56:17;;;;;;;9.02;4.25;;;1.50;95.60;;;;;;4980795;28;20049;-79
2022/01/11 06:58:48;;;;;;;10.47;3.77;;;1.50;95.60;;;;;;4984587;28;20046;-79
2022/01/11 07:01:20;;;;;;;8.90;3.20;;;1.50;95.60;;;;;;4995819;28;20050;-78
2022/01/11 07:03:49;;;;;;;10.53;4.50;;;1.50;95.60;;;;;;4994522;28;20444;-78
2022/01/11 07:06:24;;;;;;;7.37;3.50;;;1.50;95.60;;;;;;4991051;28;20046;-78
2022/01/11 07:08:54;;;;;;;8.83;3.57;;;1.50;95.60;;;;;;4984441;28;20135;-79
2022/01/11 07:11:25;;;;;;;8.17;3.83;;;1.50;95.60;;;;;;4971607;28;20034;-79
2022/01/11 07:13:54;;;;;;;8.60;3.77;;;1.60;95.60;;;;;;4991618;28;20128;-79
2022/01/11 07:16:21;;;;;;;8.20;3.85;;;1.50;95.60;;;;;;4978398;28;20052;-78
2022/01/11 07:18:50;;;;;;;11.40;5.37;;;1.60;95.60;;;;;;4971369;28;20059;-79
2022/01/11 07:21:17;;;;;;;11.60;5.23;;;1.50;95.50;;;;;;4984690;28;20050;-79
2022/01/11 07:23:46;;;;;;;9.27;4.23;;;1.50;95.50;;;;;;4990066;28;20075;-78
2022/01/11 07:26:13;;;;;;;10.90;3.93;;;1.50;95.50;;;;;;4970608;28;20072;-79
2022/01/11 07:28:41;;;;;;;10.63;4.20;;;1.50;95.50;;;;;;4991186;28;20517;-78
2022/01/11 07:31:14;;;;;;;7.80;4.07;;;1.40;95.50;;;;;;4967763;28;20084;-78
2022/01/11 07:33:46;;;;;;;10.27;4.18;;;1.50;95.60;;;;;;4988238;28;20105;-78
2022/01/11 07:36:16;;;;;;;8.77;3.90;;;1.50;95.60;;;;;;4993799;28;20045;-77
2022/01/11 07:38:46;;;;;;;9.27;3.78;;;1.50;95.60;;;;;;4973556;28;20065;-77
2022/01/11 07:41:21;;;;;;;6.80;3.17;;;1.40;95.60;;;;;;4997040;28;20106;-78
2022/01/11 07:44:02;;;;;;;8.23;3.33;;;1.40;95.60;;;;;;4989780;28;20048;-78
2022/01/11 07:46:35;;;;;;;8.65;3.92;;;1.50;95.60;;;;;;4966030;28;20049;-77
2022/01/11 07:49:08;;;;;;;7.37;3.37;;;1.50;95.70;;;;;;4992026;28;20061;-77
2022/01/11 07:51:36;;;;;;;7.73;3.23;;;1.50;95.60;;;;;;4978047;28;20050;-77
2022/01/11 07:54:07;;;;;;;8.10;3.27;;;1.50;95.60;;;;;;4981144;28;20116;-77
2022/01/11 07:56:36;;;;;;;9.17;4.03;;;1.50;95.60;;;;;;4959959;28;20124;-77
2022/01/11 07:59:04;;;;;;;8.13;3.33;;;1.60;95.60;;;;;;4990087;28;20116;-77
2022/01/11 08:01:39;;;;;;;9.02;4.18;;;1.60;95.60;;;;;;4988248;28;20064;-78
2022/01/11 08:04:07;;;;;;;10.23;3.50;;;1.60;95.60;;;;;;4992273;28;20064;-77
2022/01/11 08:06:43;;;;;;;6.85;2.63;;;1.60;95.60;;;;;;4966418;28;20046;-77
2022/01/11 08:09:29;;;;;;;7.93;3.67;;;1.60;95.60;;;;;;4968833;28;20046;-77
2022/01/11 08:11:58;;;;;;;8.40;3.23;;;1.60;95.80;;;;;;4968358;28;20045;-77
2022/01/11 08:14:26;;;;;;;8.93;4.00;;;1.60;95.50;;;;;;4986678;28;20041;-77
2022/01/11 08:16:54;;;;;;;7.85;2.80;;;1.60;95.50;;;;;;4971343;28;20097;-78
2022/01/11 08:19:25;;;;;;;7.73;3.13;;;1.60;95.50;;;;;;4980524;28;20050;-77
2022/01/11 08:21:56;;;;;;;6.20;3.00;;;1.60;95.50;;;;;;4977290;28;20578;-77
2022/01/11 08:24:31;;;;;;;5.97;2.27;;;1.60;95.80;;;;;;4988443;28;20041;-78
2022/01/11 08:26:59;;;;;;;7.78;2.50;;;1.60;95.50;;;;;;4977033;28;20045;-78
2022/01/11 08:29:26;;;;;;;7.32;2.83;;;1.60;95.50;;;;;;4988171;28;20748;-78
2022/01/11 08:31:59;;;;;;;4.75;1.60;;;1.60;95.60;;;;;;4980326;28;20038;-77
2022/01/11 08:34:26;;;;;;;5.60;2.97;;;1.70;95.60;;;;;;4986054;28;20055;-77
2022/01/11 08:36:55;;;;;;;7.63;2.73;;;1.70;95.50;;;;;;4983102;28;20073;-78
2022/01/11 08:39:26;;;;;;;6.68;2.65;;;1.80;95.60;;;;;;4973953;28;20046;-77
2022/01/11 08:41:54;;;;;;;4.50;1.87;;;1.80;95.60;;;;;;4982037;28;20034;-78
2022/01/11 08:44:24;;;;;;;4.67;1.90;;;1.80;95.60;;;;;;4978212;28;20180;-77
2022/01/11 08:46:54;;;;;;;5.13;1.80;;;1.90;95.50;;;;;;4989792;28;20046;-78
2022/01/11 08:49:28;;;;;;;6.10;2.47;;;1.90;95.50;;;;;;4974720;28;20096;-77
2022/01/11 08:51:55;;;;;;;4.97;2.00;;;1.90;95.50;;;;;;4971009;28;20124;-78
2022/01/11 08:54:24;;;;;;;6.63;1.90;;;2.00;95.50;;;;;;4970624;28;20041;-78
2022/01/11 08:56:56;;;;;;;4.90;2.42;;;2.00;95.40;;;;;;4988178;28;20127;-78
2022/01/11 08:59:25;;;;;;;6.53;2.70;;;2.00;95.40;;;;;;4983926;28;20076;-78
2022/01/11 09:02:02;;;;;;;4.78;1.92;;;2.00;95.40;;;;;;4987622;28;20046;-78
2022/01/11 09:04:31;;;;;;;4.60;2.30;;;2.10;95.40;;;;;;4968250;28;20043;-77
2022/01/11 09:07:13;;;;;;;6.43;3.47;;;2.10;95.40;;;;;;4987612;28;20387;-78
2022/01/11 09:09:41;;;;;;;5.47;2.80;;;2.10;95.30;;;;;;4987113;28;20785;-78
2022/01/11 09:12:13;;;;;;;5.68;2.75;;;2.10;95.30;;;;;;4965642;28;20064;-78
2022/01/11 09:14:43;;;;;;;8.00;3.40;;;2.10;95.30;;;;;;4985769;28;20084;-78
2022/01/11 09:17:12;;;;;;;7.23;2.87;;;2.10;95.30;;;;;;4972129;28;20054;-78
2022/01/11 09:19:40;;;;;;;6.93;2.30;;;2.10;95.30;;;;;;4972415;28;20145;-77
2022/01/11 09:22:12;;;;;;;7.05;2.88;;;2.10;95.20;;;;;;4985006;28;20054;-78
2022/01/11 09:24:40;;;;;;;4.63;2.50;;;2.20;95.20;;;;;;4986256;28;20046;-78
2022/01/11 09:27:10;;;;;;;5.77;2.20;;;2.20;95.20;;;;;;4987823;28;20042;-77
2022/01/11 09:29:41;;;;;;;6.43;2.37;;;2.30;95.30;;;;;;4973417;28;20056;-78
2022/01/11 09:32:11;;;;;;;4.73;1.93;;;2.30;95.30;;;;;;4986857;28;20104;-77
2022/01/11 09:34:40;;;;;;;6.57;2.57;;;2.40;95.20;;;;;;4987252;28;20140;-78
2022/01/11 09:37:12;;;;;;;;;;;2.40;95.20;;;;;;4986682;28;20054;-78
2022/01/11 09:39:39;;;;;;;5.33;1.70;;;2.50;95.20;;;;;;4985398;28;19921;-78
2022/01/11 09:42:07;;;;;;;7.07;2.53;;;2.50;95.20;;;;;;4970843;28;20041;-78
2022/01/11 09:44:40;;;;;;;8.20;2.83;;;2.50;95.10;;;;;;4970791;28;20077;-77
2022/01/11 09:47:12;;;;;;;5.57;2.40;;;2.60;95.10;;;;;;4968867;28;20042;-77
2022/01/11 09:49:43;;;;;;;5.97;2.50;;;2.60;95.10;;;;;;4957331;28;20108;-77
2022/01/11 09:52:11;;;;;;;6.00;2.30;;;2.60;95.10;;;;;;4987033;28;20115;-78
2022/01/11 09:54:45;;;;;;;7.23;2.53;;;2.60;95.10;;;;;;4957603;28;20069;-77
2022/01/11 09:57:15;;;;;;;6.97;2.92;;;2.70;95.00;;;;;;4967335;28;21038;-77
2022/01/11 09:59:43;;;;;;;7.72;2.70;;;2.70;95.00;;;;;;4990019;28;20077;-77
2022/01/11 10:02:32;;;;;;;5.85;2.85;;;2.70;95.00;;;;;;4985609;28;20054;-77
2022/01/11 10:05:24;;;;;;;7.25;2.85;;;2.70;95.00;;;;;;4996230;28;20082;-78
2022/01/11 10:07:52;;;;;;;5.97;2.55;;;2.70;94.90;;;;;;4989065;28;20051;-77
2022/01/11 10:10:23;;;;;;;8.77;3.22;;;2.80;95.00;;;;;;4984146;28;20491;-78
2022/01/11 10:13:03;;;;;;;6.30;2.72;;;2.90;94.90;;;;;;4998146;28;20042;-78
2022/01/11 10:15:34;;;;;;;5.65;2.60;;;2.80;95.20;;;;;;4998338;28;20054;-78
2022/01/11 10:18:35;;;;;;;6.65;2.83;;;2.90;94.90;;;;;;5004304;28;20061;-78
2022/01/11 10:21:31;;;;;;;8.32;2.88;;;2.90;94.90;;;;;;4989971;28;20080;-78
2022/01/11 10:23:59;;;;;;;6.80;3.08;;;2.90;94.90;;;;;;4985323;28;20049;-78
2022/01/11 10:26:44;;;;;;;7.28;2.75;;;2.90;95.20;;;;;;4970649;28;20049;-78
2022/01/11 10:29:33;;;;;;;5.75;1.98;;;2.90;94.80;;;;;;4984075;28;20690;-78
2022/01/11 10:32:15;;;;;;;5.30;1.98;;;3.00;94.90;;;;;;4991656;28;20054;-78
2022/01/11 10:34:47;;;;;;;5.82;2.05;;;3.00;94.90;;;;;;5001157;28;20573;-78
2022/01/11 10:37:43;;;;;;;5.88;2.38;;;3.00;94.90;;;;;;4993522;28;20060;-78
2022/01/11 10:40:22;;;;;;;6.15;2.22;;;3.00;94.80;;;;;;4995430;28;20049;-78
2022/01/11 10:43:17;;;;;;;7.97;2.30;;;3.00;95.10;;;;;;4976684;28;20148;-78
2022/01/11 10:45:48;;;;;;;5.63;2.25;;;3.00;94.80;;;;;;5014883;28;20414;-78
2022/01/11 10:48:22;;;;;;;6.20;2.08;;;3.00;94.80;;;;;;4993282;28;20074;-79
2022/01/11 10:50:55;;;;;;;6.28;2.13;;;3.00;94.80;;;;;;4994626;28;20136;-77
2022/01/11 10:53:32;;;;;;;6.07;2.33;;;3.10;94.80;;;;;;4995246;28;20042;-78
2022/01/11 10:56:02;;;;;;;5.35;1.70;;;3.10;94.80;;;;;;5013445;28;20046;-78
2022/01/11 10:59:14;;;;;;;4.70;1.50;;;3.10;94.90;;;;;;4989557;28;20041;-78
2022/01/11 11:01:48;;;;;;;6.47;2.63;;;3.10;94.80;;;;;;4976065;28;20387;-78
2022/01/11 11:04:32;;;;;;;4.10;1.45;;;3.20;94.90;;;;;;4948367;28;20057;-78
2022/01/11 11:07:16;;;;;;;4.72;1.67;;;3.20;94.80;;;;;;4981838;28;20089;-78
2022/01/11 11:09:54;;;;;;;5.75;2.28;;;3.30;94.80;;;;;;5001399;28;20053;-77
2022/01/11 11:12:23;;;;;;;5.30;2.25;;;3.30;94.80;;;;;;4988023;28;20157;-78
2022/01/11 11:15:02;;;;;;;5.57;2.58;;;3.30;94.80;;;;;;4993012;28;20049;-78
2022/01/11 11:17:37;;;;;;;5.05;1.90;;;3.30;94.80;;;;;;4975990;28;20099;-78
2022/01/11 11:20:35;;;;;;;4.70;1.65;;;3.30;94.70;;;;;;4990868;28;20132;-78
2022/01/11 11:23:04;;;;;;;6.70;2.47;;;3.30;94.80;;;;;;4977933;28;20046;-78
2022/01/11 11:25:31;;;;;;;6.55;1.73;;;3.30;94.80;;;;;;5010293;28;21246;-77
2022/01/11 11:27:58;;;;;;;5.22;1.83;;;3.30;94.80;;;;;;4970241;28;20142;-79
2022/01/11 11:30:25;;;;;;;5.53;2.03;;;3.40;94.80;;;;;;4991668;28;20042;-78
2022/01/11 11:32:53;;;;;;;5.57;1.73;;;3.40;94.70;;;;;;4993238;28;20186;-78
2022/01/11 11:35:20;;;;;;;6.47;1.97;;;3.40;94.70;;;;;;4965768;28;20050;-78
2022/01/11 11:37:51;;;;;;;5.23;1.77;;;3.40;94.80;;;;;;4991806;28;20498;-78
2022/01/11 11:40:20;;;;;;;6.28;2.55;;;3.40;94.80;;;;;;4989650;28;20053;-79
2022/01/11 11:42:53;;;;;;;6.90;2.38;;;3.50;94.70;;;;;;4993481;28;20058;-78
2022/01/11 11:45:23;;;;;;;4.40;1.85;;;3.50;94.70;;;;;;4983172;28;20126;-78
2022/01/11 11:47:57;;;;;;;6.22;1.80;;;3.60;94.70;;;;;;4993870;28;20046;-80
2022/01/11 11:50:24;;;;;;;4.85;1.70;;;3.60;94.60;;;;;;4979556;28;20064;-81
2022/01/11 11:52:53;;;;;;;4.28;1.42;;;3.70;94.60;;;;;;4966815;28;20077;-79
2022/01/11 11:55:27;;;;;;;6.32;1.65;;;3.70;94.60;;;;;;4996014;28;20113;-80
2022/01/11 11:58:06;;;;;;;4.45;1.85;;;3.80;94.60;;;;;;4992745;28;20103;-79
2022/01/11 12:00:41;;;;;;;3.65;1.55;;;3.80;94.60;;;;;;4982514;28;20057;-79
2022/01/11 12:03:23;;;;;;;8.18;2.35;;;3.80;94.60;;;;;;4991616;28;20577;-80
2022/01/11 12:05:51;;;;;;;5.40;1.83;;;3.80;94.50;;;;;;4993593;28;20058;-79
2022/01/11 12:08:24;;;;;;;5.90;1.75;;;3.90;94.60;;;;;;4983370;28;21189;-79
2022/01/11 12:10:53;;;;;;;5.68;1.88;;;3.90;94.50;;;;;;4992908;28;20050;-79
2022/01/11 12:13:47;;;;;;;4.00;1.48;;;3.90;94.50;;;;;;5015596;28;20121;-80
2022/01/11 12:16:23;;;;;;;5.13;1.60;;;4.00;94.50;;;;;;4980688;28;20510;-79
2022/01/11 12:18:59;;;;;;;6.13;1.42;;;4.00;94.50;;;;;;4992236;28;20164;-79
2022/01/11 12:21:29;;;;;;;7.68;3.10;;;4.00;94.50;;;;;;5000661;28;20080;-78
2022/01/11 12:23:58;;;;;;;11.55;4.68;;;4.00;94.40;;;;;;4983129;28;20376;-79
2022/01/11 12:26:29;;;;;;;9.65;3.58;;;4.00;94.60;;;;;;4992869;28;20116;-79
2022/01/11 12:29:04;;;;;;;9.30;3.63;;;4.00;94.30;;;;;;4984433;28;20126;-78
2022/01/11 12:31:45;;;;;;;6.60;2.88;;;4.00;94.30;;;;;;5006599;28;20491;-77
2022/01/11 12:34:13;;;;;;;7.85;3.65;;;4.00;94.30;;;;;;4987235;28;20552;-80
2022/01/11 12:36:56;;;;;;;10.23;3.33;;;4.00;94.30;;;;;;4992618;28;20050;-79
2022/01/11 12:39:26;;;;;;;6.68;2.38;;;4.00;94.30;;;;;;5001227;28;20057;-78
2022/01/11 12:41:55;;;;;;;7.22;3.10;;;4.00;94.30;;;;;;4992683;28;20080;-78
2022/01/11 12:45:35;;;;;;;5.05;2.10;;;3.90;94.30;;;;;;4986153;28;20047;-79
2022/01/11 12:47:19;;;;;;;4.72;1.95;;;4.00;94.30;;;;;;5010575;28;20542;-78
2022/01/11 12:50:05;;;;;;;6.55;2.28;;;3.90;94.40;;;;;;4987409;28;20057;-78
2022/01/11 12:52:34;;;;;;;8.48;3.58;;;3.80;94.40;;;;;;5012870;28;20041;-78
2022/01/11 12:55:02;;;;;;;7.43;3.05;;;3.80;94.40;;;;;;4981906;28;20684;-77
2022/01/11 12:57:30;;;;;;;6.53;3.10;;;3.80;94.40;;;;;;5017288;28;20453;-79
2022/01/11 13:00:01;;;;;;;5.63;2.80;;;3.70;94.40;;;;;;4981196;28;20095;-79
2022/01/11 13:02:34;;;;;;;6.32;2.60;;;3.70;94.50;;;;;;4972004;28;20115;-79
2022/01/11 13:05:06;;;;;;;;;;;3.70;94.50;;;;;;4970901;28;20090;-80
2022/01/11 13:07:34;;;;;;;5.75;2.25;;;3.60;94.60;;;;;;5003639;28;19948;-80
2022/01/11 13:10:22;;;;;;;7.13;1.97;;;3.50;94.60;;;;;;5023240;28;20045;-78
2022/01/11 13:13:11;;;;;;;4.60;1.70;;;3.50;94.60;;;;;;4990719;28;20411;-78
2022/01/11 13:15:56;;;;;;;6.28;2.13;;;3.50;94.60;;;;;;5006737;28;20046;-78
2022/01/11 13:18:25;;;;;;;4.80;1.73;;;3.50;94.70;;;;;;4996605;28;20058;-78
2022/01/11 13:20:58;;;;;;;4.80;1.75;;;3.50;94.70;;;;;;5015202;28;20050;-78
2022/01/11 13:23:32;;;;;;;;;;;3.50;94.70;;;;;;4996791;28;20529;-78
2022/01/11 13:26:01;;;;;;;4.75;1.17;;;3.50;94.70;;;;;;5003075;28;19921;-77